Kearns, Utah
Current Conditions -  °F | °C
As of 8:53 AM on Wednesday 22 Oct 2014 (Local Time) from KSLC Reporting Station
Scattered Clouds Scattered Clouds  
Wind Chill: 39°   Ceiling: Unl
Heat Index: 43°   Visibility: 10mi
Dew Point: 34°   Wind: 7mph
Humidity: 70%   Direction: 150°SSE
Pressure: 30.19"   Gusts: NA
Location:  40.65°N, 111.96°W
Report Text: KSLC 221453Z 15006KT 10SM FEW100 SCT200 06/01 A3019
Loading
Personal Weather Stations






























Interactive Weather Map
Tropical Storm Tracking
New forecast layout! Learn more

10-Day Weather Forecast

Advertisements
Track Severe Weather on mobile